createdAt,value
2023-05-24T00:02:16.115Z,99216.53
2023-05-24T00:04:45.121Z,99213.19
2023-05-24T00:07:12.571Z,99209.84
2023-05-24T00:09:39.465Z,99210.69
2023-05-24T00:12:06.512Z,99206.31
2023-05-24T00:14:33.311Z,99205.47
2023-05-24T00:17:00.342Z,99200.44
2023-05-24T00:19:27.484Z,99192.28
2023-05-24T00:21:54.379Z,99172.84
2023-05-24T00:24:21.200Z,99213.00
2023-05-24T00:26:48.573Z,99194.00
2023-05-24T00:29:15.489Z,99201.63
2023-05-24T00:31:42.501Z,99191.47
2023-05-24T00:34:09.395Z,99183.72
2023-05-24T00:36:38.147Z,99192.81
2023-05-24T00:39:05.170Z,99178.50
2023-05-24T00:41:32.011Z,99183.72
2023-05-24T00:43:58.848Z,99186.56
2023-05-24T00:46:32.551Z,99168.34
2023-05-24T00:49:01.521Z,99185.63
2023-05-24T00:51:28.818Z,99179.25
2023-05-24T00:53:56.228Z,99170.75
2023-05-24T00:56:23.394Z,99175.16
2023-05-24T00:58:54.636Z,99185.94
2023-05-24T01:01:25.685Z,99170.59
2023-05-24T01:03:54.454Z,99185.63
2023-05-24T01:06:23.445Z,99183.88
2023-05-24T01:09:17.559Z,99177.16
2023-05-24T01:11:50.332Z,99186.47
2023-05-24T01:14:21.316Z,99184.81
2023-05-24T01:17:04.458Z,99186.47
2023-05-24T01:20:02.138Z,99185.63
2023-05-24T01:22:53.396Z,99186.47
2023-05-24T01:25:45.416Z,99189.09
2023-05-24T01:28:13.057Z,99191.69
2023-05-24T01:30:41.912Z,99193.34
2023-05-24T01:33:09.877Z,99190.84
2023-05-24T01:35:40.352Z,99175.88
2023-05-24T01:38:08.452Z,99190.44
2023-05-24T01:40:35.922Z,99198.91
2023-05-24T01:43:18.686Z,99185.09
2023-05-24T01:46:09.103Z,99193.69
2023-05-24T01:49:21.877Z,99192.94
2023-05-24T01:51:59.340Z,99188.75
2023-05-24T01:54:28.573Z,99196.72
2023-05-24T01:56:57.485Z,99187.06
2023-05-24T01:59:26.515Z,99188.13
2023-05-24T02:01:53.561Z,99198.47
2023-05-24T02:04:20.517Z,99195.75
2023-05-24T02:06:47.334Z,99190.63
2023-05-24T02:09:14.242Z,99186.53
2023-05-24T02:11:41.067Z,99198.69
2023-05-24T02:14:07.923Z,99183.72
2023-05-24T02:16:34.833Z,99197.53
2023-05-24T02:19:01.733Z,99191.97
2023-05-24T02:21:28.829Z,99197.84
2023-05-24T02:23:55.653Z,99167.78
2023-05-24T02:26:22.474Z,99169.59
2023-05-24T02:28:49.483Z,99200.66
2023-05-24T02:31:16.648Z,99184.19
2023-05-24T02:33:43.599Z,99196.88
2023-05-24T02:36:10.900Z,99180.50
2023-05-24T02:38:37.792Z,99208.34
2023-05-24T02:41:04.617Z,99205.19
2023-05-24T02:43:31.455Z,99204.34
2023-05-24T02:45:58.400Z,99194.31
2023-05-24T02:48:25.425Z,99196.81
2023-05-24T02:50:52.282Z,99194.50
2023-05-24T02:53:19.114Z,99193.03
2023-05-24T02:55:46.680Z,99195.53
2023-05-24T02:58:13.603Z,99194.88
2023-05-24T03:00:40.519Z,99196.69
2023-05-24T03:03:07.748Z,99203.88
2023-05-24T03:05:34.713Z,99203.13
2023-05-24T03:08:01.679Z,99192.88
2023-05-24T03:10:28.524Z,99198.19
2023-05-24T03:12:55.397Z,99211.97
2023-05-24T03:15:22.318Z,99206.94
2023-05-24T03:17:49.345Z,99197.72
2023-05-24T03:20:17.504Z,99206.31
2023-05-24T03:22:44.581Z,99210.88
2023-05-24T03:25:11.435Z,99202.22
2023-05-24T03:27:38.313Z,99207.09
2023-05-24T03:30:06.655Z,99206.44
2023-05-24T03:32:33.679Z,99208.13
2023-05-24T03:35:01.557Z,99209.25
2023-05-24T03:37:28.510Z,99200.78
2023-05-24T03:39:55.500Z,99209.53
2023-05-24T03:42:22.546Z,99203.03
2023-05-24T03:44:49.410Z,99214.75
2023-05-24T03:47:16.595Z,99207.84
2023-05-24T03:49:43.472Z,99207.28
2023-05-24T03:52:10.320Z,99209.53
2023-05-24T03:54:37.164Z,99204.84
2023-05-24T03:57:04.202Z,99217.63
2023-05-24T03:59:31.156Z,99216.06
2023-05-24T04:01:58.063Z,99200.09
2023-05-24T04:04:25.124Z,99214.44
2023-05-24T04:06:54.044Z,99216.88
2023-05-24T04:09:22.864Z,99217.53
2023-05-24T04:11:49.953Z,99200.75
2023-05-24T04:14:17.148Z,99190.72
2023-05-24T04:16:45.148Z,99196.78
2023-05-24T04:19:12.244Z,99214.34
2023-05-24T04:21:39.219Z,99194.72
2023-05-24T04:24:06.448Z,99190.91
2023-05-24T04:26:34.704Z,99192.97
2023-05-24T04:29:01.712Z,99188.47
2023-05-24T04:31:30.437Z,99207.66
2023-05-24T04:33:59.372Z,99209.44
2023-05-24T04:36:26.419Z,99211.19
2023-05-24T04:38:53.813Z,99210.47
2023-05-24T04:41:22.407Z,99206.16
2023-05-24T04:43:50.323Z,99204.88
2023-05-24T04:46:17.286Z,99199.38
2023-05-24T04:48:44.664Z,99214.38
2023-05-24T04:51:11.887Z,99214.94
2023-05-24T04:53:38.848Z,99208.41
2023-05-24T04:56:05.743Z,99222.00
2023-05-24T04:58:33.400Z,99227.41
2023-05-24T05:01:00.602Z,99233.94
2023-05-24T05:03:34.035Z,99218.09
2023-05-24T05:06:01.070Z,99210.81
2023-05-24T05:08:28.796Z,99229.81
2023-05-24T05:10:56.626Z,99225.72
2023-05-24T05:13:23.546Z,99235.59
2023-05-24T05:15:50.528Z,99243.44
2023-05-24T05:18:17.785Z,99237.84
2023-05-24T05:20:45.158Z,99249.94
2023-05-24T05:23:12.266Z,99241.75
2023-05-24T05:25:39.105Z,99232.53
2023-05-24T05:28:06.163Z,99244.44
2023-05-24T05:30:34.220Z,99243.78
2023-05-24T05:33:02.708Z,99217.50
2023-05-24T05:35:32.909Z,99234.56
2023-05-24T05:38:00.318Z,99239.34
2023-05-24T05:40:36.483Z,99241.28
2023-05-24T05:43:04.936Z,99244.44
2023-05-24T05:45:32.151Z,99245.47
2023-05-24T05:47:59.096Z,99242.84
2023-05-24T05:50:26.079Z,99241.53
2023-05-24T05:52:54.347Z,99246.00
2023-05-24T05:55:21.279Z,99242.66
2023-05-24T05:57:48.227Z,99242.28
2023-05-24T06:00:15.649Z,99232.41
2023-05-24T06:02:42.638Z,99251.22
2023-05-24T06:05:09.612Z,99250.59
2023-05-24T06:07:37.517Z,99250.66
2023-05-24T06:10:04.785Z,99229.41
2023-05-24T06:12:32.634Z,99232.78
2023-05-24T06:14:59.814Z,99239.97
2023-05-24T06:17:28.122Z,99231.59
2023-05-24T06:19:55.895Z,99234.09
2023-05-24T06:22:23.603Z,99235.66
2023-05-24T06:24:50.513Z,99236.81
2023-05-24T06:27:17.541Z,99237.47
2023-05-24T06:29:44.723Z,99233.16
2023-05-24T06:32:12.049Z,99225.63
2023-05-24T06:34:38.966Z,99229.88
2023-05-24T06:37:05.936Z,99228.50
2023-05-24T06:39:32.779Z,99235.41
2023-05-24T06:41:59.652Z,99236.16
2023-05-24T06:44:33.540Z,99235.41
2023-05-24T06:47:05.743Z,99242.09
2023-05-24T06:49:32.877Z,99243.59
2023-05-24T06:51:59.864Z,99246.13
2023-05-24T06:54:26.761Z,99252.28
2023-05-24T06:56:53.849Z,99255.88
2023-05-24T06:59:20.774Z,99252.28
2023-05-24T07:01:49.488Z,99246.41
2023-05-24T07:04:16.553Z,99250.13
2023-05-24T07:06:43.746Z,99258.69
2023-05-24T07:09:10.654Z,99264.66
2023-05-24T07:11:37.687Z,99249.66
2023-05-24T07:14:04.707Z,99265.78
2023-05-24T07:16:31.909Z,99269.78
2023-05-24T07:18:58.919Z,99267.53
2023-05-24T07:21:26.034Z,99265.03
2023-05-24T07:23:53.309Z,99264.81
2023-05-24T07:26:20.686Z,99284.19
2023-05-24T07:28:48.205Z,99284.13
2023-05-24T07:31:15.243Z,99285.72
2023-05-24T07:33:42.432Z,99290.25
2023-05-24T07:36:09.674Z,99294.72
2023-05-24T07:38:38.995Z,99293.34
2023-05-24T07:41:07.351Z,99286.81
2023-05-24T07:43:34.340Z,99303.94
2023-05-24T07:46:01.300Z,99301.53
2023-05-24T07:48:28.458Z,99293.69
2023-05-24T07:50:55.337Z,99302.47
2023-05-24T07:53:23.350Z,99301.63
2023-05-24T07:55:50.813Z,99301.34
2023-05-24T07:58:17.679Z,99292.34
2023-05-24T08:00:46.725Z,99302.44
2023-05-24T08:03:14.856Z,99300.47
2023-05-24T08:05:42.183Z,99299.06
2023-05-24T08:08:09.765Z,99299.53
2023-05-24T08:10:36.895Z,99308.97
2023-05-24T08:13:05.187Z,99306.16
2023-05-24T08:15:32.054Z,99315.66
2023-05-24T08:17:59.039Z,99307.09
2023-05-24T08:20:25.975Z,99314.94
2023-05-24T08:22:52.818Z,99316.78
2023-05-24T08:25:19.984Z,99328.34
2023-05-24T08:27:46.898Z,99321.38
2023-05-24T08:30:14.232Z,99330.00
2023-05-24T08:32:41.432Z,99327.50
2023-05-24T08:35:20.440Z,99324.97
2023-05-24T08:37:49.263Z,99324.78
2023-05-24T08:40:17.018Z,99337.75
2023-05-24T08:42:46.329Z,99333.56
2023-05-24T08:45:15.870Z,99335.41
2023-05-24T08:47:43.421Z,99328.53
2023-05-24T08:50:11.157Z,99337.94
2023-05-24T08:52:39.848Z,99338.31
2023-05-24T08:55:07.817Z,99331.88
2023-05-24T08:57:39.993Z,99324.97
2023-05-24T09:00:14.142Z,99337.69
2023-05-24T09:02:43.243Z,99330.56
2023-05-24T09:05:14.360Z,99325.56
2023-05-24T09:07:44.972Z,99333.84
2023-05-24T09:10:13.364Z,99335.53
2023-05-24T09:12:45.795Z,99311.19
2023-05-24T09:15:13.213Z,99317.81
2023-05-24T09:17:43.679Z,99327.63
2023-05-24T09:20:11.799Z,99336.19
2023-05-24T09:22:42.833Z,99317.19
2023-05-24T09:25:14.098Z,99334.16
2023-05-24T09:27:41.486Z,99333.03
2023-05-24T09:30:13.068Z,99314.28
2023-05-24T09:32:40.320Z,99320.81
2023-05-24T09:35:10.874Z,99325.38
2023-05-24T09:37:41.745Z,99332.19
2023-05-24T09:40:20.070Z,99326.69
2023-05-24T09:42:47.605Z,99336.19
2023-05-24T09:45:15.088Z,99306.09
2023-05-24T09:47:45.474Z,99321.88
2023-05-24T09:50:20.191Z,99327.44
2023-05-24T09:52:47.478Z,99337.03
2023-05-24T09:55:20.209Z,99321.47
2023-05-24T09:58:13.148Z,99330.06
2023-05-24T10:00:42.692Z,99325.03
2023-05-24T10:03:12.384Z,99337.22
2023-05-24T10:05:46.738Z,99339.94
2023-05-24T10:08:14.721Z,99337.31
2023-05-24T10:10:42.723Z,99337.50
2023-05-24T10:13:11.557Z,99339.94
2023-05-24T10:15:38.587Z,99341.50
2023-05-24T10:18:11.392Z,99333.59
2023-05-24T10:20:41.864Z,99333.59
2023-05-24T10:23:11.175Z,99331.81
2023-05-24T10:25:50.151Z,99339.59
2023-05-24T10:28:18.511Z,99319.16
2023-05-24T10:31:01.990Z,99330.97
2023-05-24T10:33:31.356Z,99330.84
2023-05-24T10:35:59.008Z,99312.53
2023-05-24T10:38:25.928Z,99330.75
2023-05-24T10:40:54.422Z,99340.34
2023-05-24T10:43:23.603Z,99329.22
2023-05-24T10:45:51.167Z,99330.06
2023-05-24T10:48:32.875Z,99317.47
2023-05-24T10:51:04.121Z,99328.31
2023-05-24T10:53:40.205Z,99320.53
2023-05-24T10:56:09.700Z,99327.09
2023-05-24T10:59:02.332Z,99329.91
2023-05-24T11:01:32.401Z,99329.91
2023-05-24T11:04:26.521Z,99329.16
2023-05-24T11:07:03.664Z,99337.13
2023-05-24T11:09:31.846Z,99318.19
2023-05-24T11:12:08.903Z,99319.13
2023-05-24T11:14:40.104Z,99324.06
2023-05-24T11:17:08.275Z,99321.88
2023-05-24T11:19:48.333Z,99333.03
2023-05-24T11:22:15.663Z,99323.72
2023-05-24T11:24:44.509Z,99324.47
2023-05-24T11:27:13.637Z,99324.53
2023-05-24T11:29:45.460Z,99324.81
2023-05-24T11:32:21.051Z,99327.44
2023-05-24T11:34:49.081Z,99302.94
2023-05-24T11:37:17.953Z,99318.66
2023-05-24T11:39:53.009Z,99315.25
2023-05-24T11:42:22.712Z,99315.25
2023-05-24T11:44:50.317Z,99317.00
2023-05-24T11:47:17.140Z,99311.13
2023-05-24T11:49:44.011Z,99306.66
2023-05-24T11:52:10.909Z,99306.56
2023-05-24T11:54:38.872Z,99312.44
2023-05-24T11:57:06.112Z,99300.16
2023-05-24T11:59:33.206Z,99301.81
2023-05-24T12:02:04.402Z,99295.78
2023-05-24T12:04:33.092Z,99298.28
2023-05-24T12:07:01.560Z,99270.44
2023-05-24T12:09:28.683Z,99302.47
2023-05-24T12:11:56.008Z,99282.75
2023-05-24T12:14:30.923Z,99300.34
2023-05-24T12:16:58.757Z,99294.88
2023-05-24T12:19:33.786Z,99289.84
2023-05-24T12:22:09.174Z,99284.25
2023-05-24T12:24:38.103Z,99287.88
2023-05-24T12:27:09.756Z,99288.72
2023-05-24T12:29:40.477Z,99291.97
2023-05-24T12:32:13.563Z,99278.19
2023-05-24T12:34:45.526Z,99286.31
2023-05-24T12:37:13.787Z,99282.38
2023-05-24T12:39:43.568Z,99279.03
2023-05-24T12:42:12.730Z,99279.94
2023-05-24T12:44:40.271Z,99278.72
2023-05-24T12:47:08.978Z,99271.75
2023-05-24T12:49:36.577Z,99269.94
2023-05-24T12:52:03.932Z,99264.06
2023-05-24T12:54:31.499Z,99271.44
2023-05-24T12:57:00.582Z,99268.41
2023-05-24T12:59:28.543Z,99252.88
2023-05-24T13:01:56.000Z,99268.69
2023-05-24T13:04:26.509Z,99258.06
2023-05-24T13:06:55.079Z,99237.84
2023-05-24T13:09:23.316Z,99255.78
2023-05-24T13:11:51.084Z,99251.59
2023-05-24T13:14:19.609Z,99259.66
2023-05-24T13:16:47.002Z,99246.97
2023-05-24T13:19:14.040Z,99244.44
2023-05-24T13:21:41.076Z,99233.97
2023-05-24T13:24:08.678Z,99245.88
2023-05-24T13:26:38.926Z,99237.19
2023-05-24T13:31:38.447Z,99228.78
2023-05-24T13:34:06.467Z,99219.25
2023-05-24T13:36:34.504Z,99220.94
2023-05-24T13:39:14.975Z,99222.50
2023-05-24T13:41:43.786Z,99220.31
2023-05-24T13:44:14.692Z,99218.31
2023-05-24T13:46:42.979Z,99221.06
2023-05-24T13:49:10.978Z,99172.22
2023-05-24T13:51:38.667Z,99212.38
2023-05-24T13:54:07.523Z,99209.34
2023-05-24T13:56:35.136Z,99204.13
2023-05-24T13:59:03.660Z,99186.75
2023-05-24T14:01:31.945Z,99191.06
2023-05-24T14:04:00.791Z,99194.28
2023-05-24T14:06:27.957Z,99204.84
2023-05-24T14:08:54.876Z,99199.94
2023-05-24T14:11:22.601Z,99201.59
2023-05-24T14:16:19.484Z,99193.13
2023-05-24T14:18:48.905Z,99193.31
2023-05-24T14:21:16.306Z,99181.09
2023-05-24T14:23:43.151Z,99184.00
2023-05-24T14:26:10.092Z,99193.19
2023-05-24T14:28:36.955Z,99184.84
2023-05-24T14:31:03.856Z,99193.41
2023-05-24T14:33:31.827Z,99188.69
2023-05-24T14:35:58.875Z,99189.97
2023-05-24T14:38:25.981Z,99163.16
2023-05-24T14:40:53.054Z,99155.53
2023-05-24T14:43:20.105Z,99184.59
2023-05-24T14:45:47.558Z,99187.44
2023-05-24T14:48:16.656Z,99185.56
2023-05-24T14:50:43.988Z,99180.84
2023-05-24T14:53:12.522Z,99197.81
2023-05-24T14:55:42.171Z,99193.84
2023-05-24T14:58:11.518Z,99170.91
2023-05-24T15:00:39.125Z,99197.97
2023-05-24T15:03:07.915Z,99192.59
2023-05-24T15:05:36.270Z,99190.47
2023-05-24T15:08:04.476Z,99187.22
2023-05-24T15:10:32.817Z,99199.47
2023-05-24T15:13:00.823Z,99185.63
2023-05-24T15:15:28.472Z,99183.25
2023-05-24T15:17:55.551Z,99196.41
2023-05-24T15:20:22.699Z,99187.97
2023-05-24T15:22:49.615Z,99186.69
2023-05-24T15:25:17.602Z,99189.84
2023-05-24T15:27:44.468Z,99163.69
2023-05-24T15:30:11.911Z,99175.59
2023-05-24T15:32:38.778Z,99187.00
2023-05-24T15:35:06.906Z,99170.69
2023-05-24T15:37:33.730Z,99185.25
2023-05-24T15:40:00.787Z,99178.09
2023-05-24T15:42:30.509Z,99177.44
2023-05-24T15:44:57.382Z,99180.91
2023-05-24T15:47:29.021Z,99170.25
2023-05-24T15:49:57.012Z,99182.28
2023-05-24T15:52:24.160Z,99182.28
2023-05-24T15:54:51.155Z,99164.75
2023-05-24T15:57:18.054Z,99191.41
2023-05-24T15:59:44.923Z,99180.63
2023-05-24T16:02:12.024Z,99180.63
2023-05-24T16:04:39.479Z,99185.34
2023-05-24T16:07:07.353Z,99165.78
2023-05-24T16:09:34.292Z,99153.44
2023-05-24T16:12:02.766Z,99173.31
2023-05-24T16:14:29.981Z,99176.44
2023-05-24T16:16:59.013Z,99164.69
2023-05-24T16:19:26.849Z,99172.81
2023-05-24T16:21:55.102Z,99165.72
2023-05-24T16:24:22.175Z,99164.47
2023-05-24T16:26:49.281Z,99163.44
2023-05-24T16:29:18.002Z,99151.91
2023-05-24T16:31:44.935Z,99161.63
2023-05-24T16:34:11.918Z,99152.72
2023-05-24T16:36:40.086Z,99140.56
2023-05-24T16:39:07.164Z,99151.59
2023-05-24T16:41:37.743Z,99154.09
2023-05-24T16:44:05.159Z,99148.03
2023-05-24T16:46:32.769Z,99150.75
2023-05-24T16:49:08.943Z,99146.38
2023-05-24T16:51:36.941Z,99143.13
2023-05-24T16:54:08.267Z,99158.72
2023-05-24T16:56:38.635Z,99155.38
2023-05-24T16:59:07.548Z,99150.00
2023-05-24T17:01:34.778Z,99153.34
2023-05-24T17:04:01.858Z,99158.69
2023-05-24T17:06:28.830Z,99156.06
2023-05-24T17:08:55.817Z,99126.53
2023-05-24T17:11:23.074Z,99147.22
2023-05-24T17:13:51.441Z,99156.63
2023-05-24T17:16:18.713Z,99155.38
2023-05-24T17:18:45.738Z,99162.63
2023-05-24T17:21:12.767Z,99159.31
2023-05-24T17:23:39.784Z,99166.94
2023-05-24T17:26:08.218Z,99166.94
2023-05-24T17:28:36.155Z,99157.50
2023-05-24T17:31:03.730Z,99169.88
2023-05-24T17:33:31.712Z,99170.91
2023-05-24T17:36:02.715Z,99133.91
2023-05-24T17:38:33.022Z,99179.91
2023-05-24T17:41:00.241Z,99173.09
2023-05-24T17:43:32.731Z,99180.34
2023-05-24T17:46:06.827Z,99179.84
2023-05-24T17:48:42.743Z,99179.13
2023-05-24T17:51:10.699Z,99180.16
2023-05-24T17:53:38.363Z,99185.63
2023-05-24T17:56:06.683Z,99182.41
2023-05-24T17:58:36.064Z,99171.19
2023-05-24T18:01:08.305Z,99181.03
2023-05-24T18:03:37.161Z,99184.78
2023-05-24T18:06:06.591Z,99178.97
2023-05-24T18:08:35.185Z,99186.81
2023-05-24T18:11:07.904Z,99188.34
2023-05-24T18:13:36.584Z,99195.69
2023-05-24T18:16:03.576Z,99198.44
2023-05-24T18:18:30.770Z,99206.16
2023-05-24T18:20:57.659Z,99181.19
2023-05-24T18:23:24.603Z,99206.69
2023-05-24T18:26:01.737Z,99203.25
2023-05-24T18:28:30.239Z,99205.75
2023-05-24T18:30:57.085Z,99175.84
2023-05-24T18:33:24.464Z,99203.56
2023-05-24T18:35:51.416Z,99212.16
2023-05-24T18:38:18.276Z,99211.63
2023-05-24T18:40:45.229Z,99209.75
2023-05-24T18:43:12.630Z,99204.94
2023-05-24T18:45:39.489Z,99207.25
2023-05-24T18:48:06.723Z,99206.84
2023-05-24T18:50:34.014Z,99216.47
2023-05-24T18:53:01.071Z,99222.00
2023-05-24T18:55:28.820Z,99224.81
2023-05-24T18:57:55.997Z,99211.66
2023-05-24T19:00:23.017Z,99217.31
2023-05-24T19:02:50.277Z,99220.66
2023-05-24T19:05:17.250Z,99225.53
2023-05-24T19:07:44.116Z,99231.94
2023-05-24T19:10:11.486Z,99240.72
2023-05-24T19:12:38.308Z,99237.47
2023-05-24T19:15:06.039Z,99238.53
2023-05-24T19:17:33.171Z,99240.31
2023-05-24T19:20:01.416Z,99247.63
2023-05-24T19:22:28.367Z,99245.94
2023-05-24T19:24:56.244Z,99251.53
2023-05-24T19:27:24.517Z,99254.31
2023-05-24T19:29:51.493Z,99259.44
2023-05-24T19:32:20.241Z,99259.59
2023-05-24T19:34:47.337Z,99252.69
2023-05-24T19:37:15.703Z,99256.84
2023-05-24T19:39:42.613Z,99265.38
2023-05-24T19:42:11.574Z,99269.19
2023-05-24T19:44:38.378Z,99266.00
2023-05-24T19:47:05.756Z,99255.31
2023-05-24T19:49:32.645Z,99273.50
2023-05-24T19:51:59.550Z,99274.06
2023-05-24T19:54:26.418Z,99272.41
2023-05-24T19:56:55.089Z,99276.50
2023-05-24T19:59:21.980Z,99274.81
2023-05-24T20:01:48.903Z,99273.13
2023-05-24T20:04:15.925Z,99270.53
2023-05-24T20:06:42.967Z,99280.78
2023-05-24T20:09:09.822Z,99276.50
2023-05-24T20:11:36.672Z,99273.03
2023-05-24T20:14:03.597Z,99268.56
2023-05-24T20:16:31.254Z,99272.69
2023-05-24T20:18:58.324Z,99283.78
2023-05-24T20:21:25.208Z,99276.31
2023-05-24T20:23:57.775Z,99293.38
2023-05-24T20:26:25.415Z,99288.25
2023-05-24T20:28:52.409Z,99290.81
2023-05-24T20:31:19.504Z,99289.81
2023-05-24T20:33:46.618Z,99289.06
2023-05-24T20:36:15.000Z,99284.25
2023-05-24T20:38:42.020Z,99274.81
2023-05-24T20:41:08.962Z,99289.81
2023-05-24T20:43:35.877Z,99287.22
2023-05-24T20:46:03.644Z,99288.31
2023-05-24T20:48:30.665Z,99290.28
2023-05-24T20:50:57.717Z,99285.56
2023-05-24T20:53:24.580Z,99287.13
2023-05-24T20:55:51.568Z,99292.94
2023-05-24T20:58:18.551Z,99287.97
2023-05-24T21:00:45.949Z,99290.03
2023-05-24T21:03:13.175Z,99288.41
2023-05-24T21:05:40.341Z,99280.28
2023-05-24T21:08:07.362Z,99292.44
2023-05-24T21:10:34.338Z,99264.56
2023-05-24T21:13:01.197Z,99273.97
2023-05-24T21:15:28.015Z,99293.97
2023-05-24T21:17:55.058Z,99287.09
2023-05-24T21:20:22.200Z,99293.97
2023-05-24T21:22:49.250Z,99266.31
2023-05-24T21:25:16.322Z,99295.00
2023-05-24T21:27:43.199Z,99297.53
2023-05-24T21:30:10.754Z,99297.53
2023-05-24T21:32:37.717Z,99302.84
2023-05-24T21:35:05.186Z,99298.72
2023-05-24T21:37:32.089Z,99294.34
2023-05-24T21:39:59.049Z,99307.00
2023-05-24T21:42:26.003Z,99291.66
2023-05-24T21:44:52.923Z,99297.06
2023-05-24T21:47:19.833Z,99300.50
2023-05-24T21:49:46.721Z,99298.91
2023-05-24T21:52:13.694Z,99308.41
2023-05-24T21:54:40.645Z,99305.78
2023-05-24T21:57:07.551Z,99314.56
2023-05-24T21:59:34.389Z,99317.81
2023-05-24T22:02:01.488Z,99289.97
2023-05-24T22:04:28.396Z,99306.16
2023-05-24T22:06:55.382Z,99320.25
2023-05-24T22:09:22.332Z,99305.97
2023-05-24T22:11:49.361Z,99312.13
2023-05-24T22:14:16.258Z,99296.13
2023-05-24T22:16:43.217Z,99296.94
2023-05-24T22:19:13.527Z,99307.50
2023-05-24T22:21:42.762Z,99312.78
2023-05-24T22:24:10.165Z,99318.81
2023-05-24T22:26:37.276Z,99284.19
2023-05-24T22:29:04.614Z,99316.50
2023-05-24T22:31:33.487Z,99312.22
2023-05-24T22:34:02.437Z,99327.59
2023-05-24T22:36:33.355Z,99326.03
2023-05-24T22:39:03.962Z,99323.63
2023-05-24T22:41:33.333Z,99317.41
2023-05-24T22:44:00.326Z,99322.19
2023-05-24T22:46:27.400Z,99310.38
2023-05-24T22:48:56.605Z,99283.38
2023-05-24T22:51:23.950Z,99307.41
2023-05-24T22:53:52.656Z,99315.75
2023-05-24T22:56:19.682Z,99316.66
2023-05-24T22:58:46.843Z,99313.19
2023-05-24T23:01:15.569Z,99318.50
2023-05-24T23:03:42.715Z,99309.78
2023-05-24T23:06:11.951Z,99310.97
2023-05-24T23:08:39.474Z,99320.00
2023-05-24T23:11:13.118Z,99303.16
2023-05-24T23:13:42.248Z,99328.09
2023-05-24T23:16:09.340Z,99327.34
2023-05-24T23:18:37.715Z,99320.16
2023-05-24T23:21:04.782Z,99322.94
2023-05-24T23:23:31.686Z,99328.63
2023-05-24T23:25:58.511Z,99312.03
2023-05-24T23:28:25.439Z,99329.34
2023-05-24T23:30:53.567Z,99319.25
2023-05-24T23:33:20.761Z,99327.16
2023-05-24T23:35:47.831Z,99323.63
2023-05-24T23:38:15.972Z,99322.22
2023-05-24T23:40:43.238Z,99314.00
2023-05-24T23:43:10.077Z,99306.44
2023-05-24T23:45:36.994Z,99317.28
2023-05-24T23:48:04.145Z,99323.47
2023-05-24T23:50:37.315Z,99291.72
2023-05-24T23:53:09.952Z,99327.88
2023-05-24T23:55:36.895Z,99318.78
2023-05-24T23:58:03.774Z,99322.28
